Terminal Aerodrome Forecast
Issued by NWS

Home | Current Version | Previous Version | Text Only | Print | Product List | Glossary On
Versions: 1 2 3 4 5 6 7 8 9 10 11 12 13 14
628
FTUS44 KLZK 240327 AAA
TAFHRO
TAF AMD
KHRO 240327Z 2403/2424 28003KT P6SM SKC
     FM240800 30005KT P6SM SCT025 OVC035
      TEMPO 2409/2413 SCT015 BKN025 OVC035
     FM241600 31012G20KT P6SM BKN040=

USA.gov is the U.S. government's official web portal to all federal, state and local government web resources and services.